Nome, AK

5:00 PM AKST on December 28, 2014 (GMT -0900)
Tin City LRRS | Change Station
CLOSE
Current Station
Airport
Location: Tin City,
Elevation: 272 ft
Nearby Weather Stations

Elev 272 ft 65.56 °N, 167.92 °W | Updated 5 minutes ago

Light Freezing Rain
Light Freezing Rain Freezing Fog
26 °F
Feels Like 12 °F
N
21
Wind Variable Wind from South

Today
High -- | Low -- °F
--% Chance of Precip.
Yesterday
High -- | Low -- °F
Precip. -- in
12:02 PM 4:04 PM
First Quarter, 53% visible
Pressure 29.98 in
Visibility 0.2 miles
Clouds
Windchill 12 °F
Dew Point 26 °F
Humidity 100%
Rainfall 0.00 in
Snow Depth Not available.
UV Not available.
Pollen Not available.
Air Quality Not available.
Flu Activity Not available.
METAR PATC 290155Z AUTO 19018KT M1/4SM -FZRA FZFG VV002 M03/M03 A2996 RMK AO2 PK WND 19026/0122 SNB0055E0129 SLP152 P0000 T10321032 TSNO $

More Conditions Fewer Conditions

Pressure 29.98 in
Visibility 0.2 miles
Clouds
Windchill 12 °F
Dew Point 26 °F
Humidity 100%
Rainfall 0.00 in
Snow Depth Not available.
UV Not available.
Pollen Not available.
Air Quality Not available.
Flu Activity Not available.
METAR PATC 290155Z AUTO 19018KT M1/4SM -FZRA FZFG VV002 M03/M03 A2996 RMK AO2 PK WND 19026/0122 SNB0055E0129 SLP152 P0000 T10321032 TSNO $

More Conditions Fewer Conditions

10-Day Weather Forecast

Almanac

Astronomy

Dec. 28, 2014 Rise Set
Actual Time
Civil Twilight
Nautical Twilight
Astronomical Twilight
Moon
Length of Visible Light
Length of Day
Tomorrow will be .
, % of the Moon is Illuminated

Today's Extremes

State Highs State Lows

Community

WunderPhotos

Upload Photos

1,781,492 photos uploaded!

WunderBlogs® & News

Nearby

Air Quality

  Air Quality AQ Index Pollutant
Not available.

Snow Depth

Station Depth Elevation

Earthquake Activity

City Distance Mag. Time & Date
Minimum magnitude displayed is 2.5.

Coastal Water Temperatures

Place Temperature

Nearby Weather Stations